Sticks, Pennsylvania
Current Conditions -  °F | °C
As of 10:09 AM on Wednesday 22 Oct 2014 (Local Time) from KTHV Reporting Station
Light Rain Light Rain  
Wind Chill: 54°   Ceiling: 2900
Heat Index: 54°   Visibility: 6mi
Dew Point: 49°   Wind: 9mph
Humidity: 83%   Direction: 340°NNW
Pressure: 29.95"   Gusts: NA
Location:  39.7603°N, 76.8573°W
Report Text: KTHV 221409Z AUTO 34008KT 6SM -RA BKN029 BKN035 OVC065 12/09 A2995 RMK AO2 P0001 T01220094
Loading
Personal Weather Stations






























Interactive Weather Map
Tropical Storm Tracking
New forecast layout! Learn more

10-Day Weather Forecast

Advertisements
Track Severe Weather on mobile